createdAt,value
2023-07-12T00:00:51.884Z,100.00
2023-07-12T00:03:53.580Z,100.00
2023-07-12T00:06:55.239Z,100.00
2023-07-12T00:09:56.822Z,100.00
2023-07-12T00:12:58.728Z,100.00
2023-07-12T00:16:00.431Z,100.00
2023-07-12T00:19:03.118Z,100.00
2023-07-12T00:22:05.056Z,100.00
2023-07-12T00:25:06.958Z,100.00
2023-07-12T00:28:26.714Z,100.00
2023-07-12T00:31:28.677Z,100.00
2023-07-12T00:34:30.387Z,100.00
2023-07-12T00:37:32.016Z,100.00
2023-07-12T00:40:45.419Z,100.00
2023-07-12T00:43:56.800Z,100.00
2023-07-12T00:47:00.564Z,100.00
2023-07-12T00:50:02.672Z,100.00
2023-07-12T00:53:04.268Z,100.00
2023-07-12T00:56:11.450Z,100.00
2023-07-12T00:59:16.100Z,100.00
2023-07-12T01:02:17.895Z,100.00
2023-07-12T01:05:19.561Z,100.00
2023-07-12T01:08:22.435Z,100.00
2023-07-12T01:11:24.122Z,100.00
2023-07-12T01:14:25.820Z,100.00
2023-07-12T01:17:28.785Z,100.00
2023-07-12T01:20:37.449Z,100.00
2023-07-12T01:23:41.434Z,100.00
2023-07-12T01:26:46.696Z,100.00
2023-07-12T01:29:49.928Z,100.00
2023-07-12T01:32:53.980Z,100.00
2023-07-12T01:35:55.691Z,100.00
2023-07-12T01:38:59.325Z,100.00
2023-07-12T01:42:01.214Z,100.00
2023-07-12T01:45:02.917Z,100.00
2023-07-12T01:48:04.869Z,100.00
2023-07-12T01:51:06.964Z,100.00
2023-07-12T01:54:09.026Z,100.00
2023-07-12T01:57:10.707Z,100.00
2023-07-12T02:00:12.915Z,100.00
2023-07-12T02:03:15.004Z,100.00
2023-07-12T02:06:16.852Z,100.00
2023-07-12T02:09:18.433Z,100.00
2023-07-12T02:12:20.051Z,100.00
2023-07-12T02:15:21.694Z,100.00
2023-07-12T02:18:23.480Z,100.00
2023-07-12T02:21:25.258Z,100.00
2023-07-12T02:24:26.879Z,100.00
2023-07-12T02:27:28.571Z,100.00
2023-07-12T02:30:31.045Z,100.00
2023-07-12T02:33:32.804Z,100.00
2023-07-12T02:36:34.401Z,100.00
2023-07-12T02:39:36.018Z,100.00
2023-07-12T02:42:38.097Z,100.00
2023-07-12T02:45:39.733Z,100.00
2023-07-12T02:48:41.449Z,100.00
2023-07-12T02:51:43.058Z,100.00
2023-07-12T02:54:45.015Z,100.00
2023-07-12T02:57:46.578Z,100.00
2023-07-12T03:00:48.447Z,100.00
2023-07-12T03:03:50.118Z,100.00
2023-07-12T03:06:51.784Z,100.00
2023-07-12T03:09:57.738Z,100.00
2023-07-12T03:12:59.411Z,100.00
2023-07-12T03:16:05.327Z,100.00
2023-07-12T03:19:06.975Z,100.00
2023-07-12T03:22:08.595Z,100.00
2023-07-12T03:25:10.190Z,100.00
2023-07-12T03:28:11.774Z,100.00
2023-07-12T03:31:16.908Z,100.00
2023-07-12T03:34:18.741Z,100.00
2023-07-12T03:37:21.206Z,100.00
2023-07-12T03:40:22.830Z,100.00
2023-07-12T03:43:25.334Z,100.00
2023-07-12T03:46:26.974Z,100.00
2023-07-12T03:49:29.395Z,100.00
2023-07-12T03:52:31.027Z,100.00
2023-07-12T03:55:32.642Z,100.00
2023-07-12T03:58:39.362Z,100.00
2023-07-12T04:01:40.901Z,100.00
2023-07-12T04:04:42.893Z,100.00
2023-07-12T04:07:44.647Z,100.00
2023-07-12T04:10:46.835Z,100.00
2023-07-12T04:13:48.467Z,100.00
2023-07-12T04:16:50.144Z,100.00
2023-07-12T04:19:51.792Z,100.00
2023-07-12T04:22:53.838Z,100.00
2023-07-12T04:26:02.944Z,100.00
2023-07-12T04:29:04.613Z,100.00
2023-07-12T04:32:06.959Z,100.00
2023-07-12T04:35:09.378Z,100.00
2023-07-12T04:38:11.005Z,100.00
2023-07-12T04:41:13.493Z,100.00
2023-07-12T04:44:15.217Z,100.00
2023-07-12T04:47:17.428Z,100.00
2023-07-12T04:50:19.241Z,100.00
2023-07-12T04:53:22.394Z,100.00
2023-07-12T04:56:24.007Z,100.00
2023-07-12T04:59:25.567Z,100.00
2023-07-12T05:02:27.215Z,100.00
2023-07-12T05:05:28.860Z,100.00
2023-07-12T05:08:30.431Z,98.80
2023-07-12T05:11:32.528Z,97.27
2023-07-12T05:14:34.280Z,95.63
2023-07-12T05:17:36.664Z,95.28
2023-07-12T05:20:38.421Z,92.60
2023-07-12T05:23:41.290Z,92.36
2023-07-12T05:26:43.074Z,91.81
2023-07-12T05:29:45.030Z,89.93
2023-07-12T05:32:53.258Z,90.00
2023-07-12T05:35:54.878Z,91.42
2023-07-12T05:38:57.507Z,91.47
2023-07-12T05:41:59.158Z,91.32
2023-07-12T05:45:00.884Z,90.80
2023-07-12T05:48:02.571Z,89.70
2023-07-12T05:51:05.286Z,90.31
2023-07-12T05:54:06.977Z,88.15
2023-07-12T05:57:08.593Z,86.43
2023-07-12T06:00:11.800Z,89.11
2023-07-12T06:03:13.547Z,88.85
2023-07-12T06:06:15.356Z,88.82
2023-07-12T06:09:17.085Z,88.29
2023-07-12T06:12:18.825Z,87.64
2023-07-12T06:15:20.454Z,87.89
2023-07-12T06:18:22.244Z,86.84
2023-07-12T06:21:24.138Z,86.57
2023-07-12T06:24:25.848Z,85.16
2023-07-12T06:27:27.498Z,85.65
2023-07-12T06:30:29.175Z,86.97
2023-07-12T06:33:32.277Z,87.32
2023-07-12T06:36:34.706Z,86.87
2023-07-12T06:39:37.660Z,83.05
2023-07-12T06:42:39.313Z,84.40
2023-07-12T06:45:40.938Z,85.11
2023-07-12T06:48:42.695Z,83.04
2023-07-12T06:51:47.907Z,84.05
2023-07-12T06:54:49.481Z,83.04
2023-07-12T06:57:51.101Z,84.50
2023-07-12T07:00:52.738Z,82.66
2023-07-12T07:03:54.455Z,82.06
2023-07-12T07:06:56.103Z,83.81
2023-07-12T07:09:57.802Z,83.80
2023-07-12T07:12:59.531Z,82.88
2023-07-12T07:16:01.239Z,81.82
2023-07-12T07:19:03.590Z,81.76
2023-07-12T07:22:06.217Z,81.73
2023-07-12T07:25:16.209Z,80.66
2023-07-12T07:28:22.321Z,79.92
2023-07-12T07:31:24.039Z,79.67
2023-07-12T07:34:25.782Z,82.37
2023-07-12T07:37:27.425Z,79.61
2023-07-12T07:40:29.264Z,78.81
2023-07-12T07:43:31.042Z,78.16
2023-07-12T07:46:32.695Z,79.01
2023-07-12T07:49:34.379Z,80.07
2023-07-12T07:52:36.052Z,80.66
2023-07-12T07:55:42.633Z,76.89
2023-07-12T07:58:44.349Z,78.27
2023-07-12T08:01:46.035Z,76.13
2023-07-12T08:04:47.819Z,74.51
2023-07-12T08:07:49.494Z,75.93
2023-07-12T08:10:51.361Z,72.96
2023-07-12T08:13:52.966Z,73.18
2023-07-12T08:16:54.549Z,72.36
2023-07-12T08:19:56.242Z,72.16
2023-07-12T08:22:57.930Z,71.65
2023-07-12T08:25:59.717Z,69.36
2023-07-12T08:29:01.302Z,67.89
2023-07-12T08:32:06.274Z,68.68
2023-07-12T08:35:11.535Z,69.71
2023-07-12T08:38:13.218Z,67.90
2023-07-12T08:41:18.073Z,63.52
2023-07-12T08:44:20.042Z,63.66
2023-07-12T08:47:36.533Z,62.83
2023-07-12T08:50:47.049Z,61.92
2023-07-12T08:53:48.767Z,59.94
2023-07-12T08:57:15.407Z,59.79
2023-07-12T09:00:22.112Z,60.24
2023-07-12T09:03:23.844Z,61.11
2023-07-12T09:06:25.496Z,60.36
2023-07-12T09:09:28.934Z,63.05
2023-07-12T09:12:36.357Z,62.03
2023-07-12T09:15:43.781Z,57.04
2023-07-12T09:18:47.369Z,57.17
2023-07-12T09:21:57.681Z,58.10
2023-07-12T09:24:59.324Z,55.64
2023-07-12T09:28:00.982Z,54.99
2023-07-12T09:31:29.978Z,55.82
2023-07-12T09:34:34.635Z,57.38
2023-07-12T09:37:38.307Z,58.09
2023-07-12T09:40:45.844Z,60.18
2023-07-12T09:43:55.748Z,60.86
2023-07-12T09:47:04.195Z,60.80
2023-07-12T09:50:11.698Z,61.27
2023-07-12T09:53:43.804Z,60.76
2023-07-12T09:56:54.824Z,56.14
2023-07-12T10:00:20.905Z,55.51
2023-07-12T10:03:27.496Z,55.09
2023-07-12T10:06:43.569Z,54.09
2023-07-12T10:09:49.134Z,60.26
2023-07-12T10:13:13.535Z,59.03
2023-07-12T10:16:20.565Z,57.06
2023-07-12T10:19:30.199Z,61.97
2023-07-12T10:22:40.186Z,56.75
2023-07-12T10:25:47.438Z,54.97
2023-07-12T10:29:06.944Z,53.58
2023-07-12T10:32:20.151Z,53.99
2023-07-12T10:35:45.998Z,53.06
2023-07-12T10:38:49.166Z,51.43
2023-07-12T10:41:56.556Z,50.65
2023-07-12T10:45:00.075Z,51.23
2023-07-12T10:48:03.926Z,48.08
2023-07-12T10:51:28.383Z,50.82
2023-07-12T10:54:32.879Z,49.32
2023-07-12T10:57:47.218Z,47.87
2023-07-12T11:00:52.477Z,48.07
2023-07-12T11:04:11.113Z,45.26
2023-07-12T11:07:15.823Z,47.37
2023-07-12T11:10:23.998Z,46.79
2023-07-12T11:13:33.728Z,47.73
2023-07-12T11:16:45.542Z,47.57
2023-07-12T11:19:51.853Z,45.73
2023-07-12T11:22:58.489Z,46.46
2023-07-12T11:26:31.283Z,48.12
2023-07-12T11:29:35.819Z,46.34
2023-07-12T11:32:39.707Z,49.38
2023-07-12T11:35:48.983Z,47.60
2023-07-12T11:38:51.835Z,49.57
2023-07-12T11:41:56.119Z,50.37
2023-07-12T11:45:07.418Z,49.73
2023-07-12T11:48:09.646Z,50.40
2023-07-12T11:51:19.983Z,46.85
2023-07-12T11:54:23.496Z,47.08
2023-07-12T11:57:25.081Z,46.16
2023-07-12T12:00:31.405Z,44.27
2023-07-12T12:03:33.089Z,41.29
2023-07-12T12:06:36.405Z,43.90
2023-07-12T12:09:38.939Z,43.66
2023-07-12T12:12:41.458Z,41.79
2023-07-12T12:16:18.597Z,41.30
2023-07-12T12:19:21.652Z,42.66
2023-07-12T12:22:25.893Z,42.93
2023-07-12T12:25:31.859Z,41.67
2023-07-12T12:28:37.079Z,43.38
2023-07-12T12:31:49.680Z,40.28
2023-07-12T12:34:54.744Z,39.60
2023-07-12T12:38:06.353Z,41.73
2023-07-12T12:41:14.243Z,42.83
2023-07-12T12:44:18.905Z,40.80
2023-07-12T12:47:22.700Z,41.01
2023-07-12T12:53:33.679Z,41.33
2023-07-12T13:06:06.094Z,47.43
2023-07-12T13:21:42.541Z,45.74
2023-07-12T13:24:45.203Z,48.95
2023-07-12T13:27:55.089Z,51.11
2023-07-12T13:30:56.781Z,50.72
2023-07-12T13:40:34.906Z,49.46
2023-07-12T13:46:43.523Z,45.03
2023-07-12T13:49:48.552Z,46.21
2023-07-12T13:52:51.135Z,44.40
2023-07-12T13:56:00.180Z,46.12
2023-07-12T13:59:16.760Z,46.32
2023-07-12T14:08:40.774Z,44.00
2023-07-12T14:11:42.843Z,41.91
2023-07-12T14:14:46.907Z,41.21
2023-07-12T14:17:48.591Z,40.49
2023-07-12T14:20:50.674Z,41.64
2023-07-12T14:23:52.408Z,39.00
2023-07-12T14:26:54.050Z,36.40
2023-07-12T14:33:05.984Z,33.20
2023-07-12T14:36:08.014Z,32.34
2023-07-12T14:39:09.838Z,34.49
2023-07-12T14:42:23.286Z,34.64
2023-07-12T14:45:26.214Z,32.60
2023-07-12T14:48:27.859Z,32.43
2023-07-12T14:51:31.927Z,33.97
2023-07-12T14:54:41.993Z,32.18
2023-07-12T15:00:55.174Z,32.85
2023-07-12T15:04:08.827Z,33.05
2023-07-12T15:07:35.054Z,35.15
2023-07-12T15:10:36.672Z,35.51
2023-07-12T15:13:38.387Z,32.89
2023-07-12T15:16:43.194Z,32.61
2023-07-12T15:19:44.804Z,33.20
2023-07-12T15:22:47.130Z,33.21
2023-07-12T15:25:48.952Z,34.25
2023-07-12T15:28:50.604Z,31.33
2023-07-12T15:31:52.252Z,31.76
2023-07-12T15:34:53.937Z,31.89
2023-07-12T15:38:03.673Z,30.45
2023-07-12T15:41:20.558Z,32.55
2023-07-12T15:44:23.233Z,31.98
2023-07-12T15:47:25.668Z,30.27
2023-07-12T15:50:27.577Z,29.48
2023-07-12T15:53:29.188Z,29.76
2023-07-12T15:56:36.734Z,29.74
2023-07-12T15:59:40.511Z,29.73
2023-07-12T16:02:42.176Z,30.89
2023-07-12T16:05:43.864Z,32.27
2023-07-12T16:08:46.898Z,34.64
2023-07-12T16:11:48.736Z,35.44
2023-07-12T16:14:50.383Z,38.27
2023-07-12T16:17:52.092Z,39.69
2023-07-12T16:20:56.988Z,41.24
2023-07-12T16:23:59.815Z,41.66
2023-07-12T16:27:01.479Z,44.46
2023-07-12T16:30:03.167Z,42.94
2023-07-12T16:33:21.714Z,43.23
2023-07-12T16:36:24.821Z,44.82
2023-07-12T16:39:26.540Z,42.61
2023-07-12T16:42:29.713Z,44.10
2023-07-12T16:45:31.467Z,45.79
2023-07-12T16:48:35.029Z,48.62
2023-07-12T16:52:00.347Z,49.47
2023-07-12T16:55:02.077Z,51.31
2023-07-12T16:58:15.187Z,52.71
2023-07-12T17:01:22.979Z,55.79
2023-07-12T17:04:25.452Z,59.90
2023-07-12T17:07:27.152Z,56.53
2023-07-12T17:10:28.922Z,58.74
2023-07-12T17:13:31.004Z,59.71
2023-07-12T17:16:32.659Z,60.13
2023-07-12T17:19:34.397Z,61.08
2023-07-12T17:22:36.747Z,63.03
2023-07-12T17:25:38.448Z,62.74
2023-07-12T17:28:40.381Z,60.83
2023-07-12T17:31:44.475Z,67.32
2023-07-12T17:34:46.198Z,67.90
2023-07-12T17:37:47.798Z,68.18
2023-07-12T17:40:52.567Z,65.73
2023-07-12T17:43:55.346Z,67.72
2023-07-12T17:46:58.290Z,67.55
2023-07-12T17:49:59.907Z,71.40
2023-07-12T17:53:02.092Z,71.99
2023-07-12T17:56:03.866Z,69.42
2023-07-12T17:59:05.598Z,70.67
2023-07-12T18:02:26.332Z,70.72
2023-07-12T18:05:29.965Z,68.71
2023-07-12T18:08:31.538Z,70.95
2023-07-12T18:11:37.595Z,74.59
2023-07-12T18:14:40.660Z,72.67
2023-07-12T18:17:42.336Z,78.10
2023-07-12T18:20:45.228Z,79.68
2023-07-12T18:23:47.987Z,77.25
2023-07-12T18:26:50.509Z,79.35
2023-07-12T18:29:52.260Z,81.12
2023-07-12T18:32:53.988Z,80.98
2023-07-12T18:35:56.151Z,85.00
2023-07-12T18:38:58.401Z,86.95
2023-07-12T18:42:00.197Z,88.13
2023-07-12T18:45:01.965Z,86.66
2023-07-12T18:48:04.167Z,87.16
2023-07-12T18:51:11.335Z,89.76
2023-07-12T18:54:19.703Z,93.44
2023-07-12T18:57:21.378Z,95.43
2023-07-12T19:00:23.519Z,97.72
2023-07-12T19:03:35.871Z,96.80
2023-07-12T19:06:37.577Z,97.48
2023-07-12T19:09:39.133Z,98.29
2023-07-12T19:12:40.814Z,98.66
2023-07-12T19:15:42.480Z,98.88
2023-07-12T19:18:44.993Z,100.00
2023-07-12T19:21:48.606Z,100.00
2023-07-12T19:24:55.293Z,100.00
2023-07-12T19:27:56.912Z,100.00
2023-07-12T19:30:58.610Z,100.00
2023-07-12T19:34:01.687Z,100.00
2023-07-12T19:37:03.519Z,100.00
2023-07-12T19:40:07.283Z,100.00
2023-07-12T19:43:09.230Z,100.00
2023-07-12T19:46:12.070Z,100.00
2023-07-12T19:49:14.992Z,100.00
2023-07-12T19:52:18.618Z,100.00
2023-07-12T19:55:28.432Z,100.00
2023-07-12T19:58:30.068Z,100.00
2023-07-12T20:01:33.057Z,100.00
2023-07-12T20:04:34.773Z,100.00
2023-07-12T20:07:36.792Z,100.00
2023-07-12T20:10:38.374Z,100.00
2023-07-12T20:13:40.872Z,100.00
2023-07-12T20:16:42.549Z,100.00
2023-07-12T20:19:44.220Z,100.00
2023-07-12T20:22:46.256Z,100.00
2023-07-12T20:25:49.753Z,100.00
2023-07-12T20:28:51.499Z,100.00
2023-07-12T20:32:00.536Z,100.00
2023-07-12T20:35:05.299Z,100.00
2023-07-12T20:38:08.351Z,100.00
2023-07-12T20:41:10.564Z,100.00
2023-07-12T20:44:12.200Z,100.00
2023-07-12T20:47:22.575Z,100.00
2023-07-12T20:50:25.700Z,100.00
2023-07-12T20:53:27.728Z,100.00
2023-07-12T20:56:29.520Z,100.00
2023-07-12T20:59:32.646Z,100.00
2023-07-12T21:02:34.262Z,100.00
2023-07-12T21:05:36.032Z,100.00
2023-07-12T21:08:38.041Z,100.00
2023-07-12T21:11:39.653Z,100.00
2023-07-12T21:14:41.326Z,100.00
2023-07-12T21:17:42.916Z,100.00
2023-07-12T21:20:44.791Z,100.00
2023-07-12T21:23:46.415Z,100.00
2023-07-12T21:26:48.472Z,100.00
2023-07-12T21:29:50.637Z,100.00
2023-07-12T21:32:52.250Z,100.00
2023-07-12T21:35:56.607Z,100.00
2023-07-12T21:38:58.209Z,100.00
2023-07-12T21:42:00.278Z,100.00
2023-07-12T21:45:02.151Z,100.00
2023-07-12T21:48:04.578Z,100.00
2023-07-12T21:51:06.175Z,100.00
2023-07-12T21:54:07.804Z,100.00
2023-07-12T21:57:09.405Z,100.00
2023-07-12T22:00:16.714Z,100.00
2023-07-12T22:03:18.621Z,100.00
2023-07-12T22:06:21.444Z,100.00
2023-07-12T22:09:23.007Z,100.00
2023-07-12T22:12:24.658Z,100.00
2023-07-12T22:15:27.306Z,100.00
2023-07-12T22:18:41.719Z,100.00
2023-07-12T22:21:53.217Z,100.00
2023-07-12T22:24:55.350Z,100.00
2023-07-12T22:27:56.987Z,100.00
2023-07-12T22:30:58.629Z,100.00
2023-07-12T22:34:00.450Z,100.00
2023-07-12T22:37:02.522Z,100.00
2023-07-12T22:40:07.000Z,100.00
2023-07-12T22:43:08.655Z,100.00
2023-07-12T22:46:11.157Z,100.00
2023-07-12T22:49:14.400Z,100.00
2023-07-12T22:52:16.020Z,100.00
2023-07-12T22:55:18.291Z,100.00
2023-07-12T22:58:19.867Z,100.00
2023-07-12T23:01:22.680Z,100.00
2023-07-12T23:04:24.323Z,100.00
2023-07-12T23:07:27.384Z,100.00
2023-07-12T23:10:28.992Z,100.00
2023-07-12T23:13:31.965Z,100.00
2023-07-12T23:16:34.018Z,100.00
2023-07-12T23:19:37.173Z,100.00
2023-07-12T23:22:39.896Z,100.00
2023-07-12T23:25:42.445Z,100.00
2023-07-12T23:28:46.093Z,100.00
2023-07-12T23:31:47.959Z,100.00
2023-07-12T23:34:49.624Z,100.00
2023-07-12T23:37:51.616Z,100.00
2023-07-12T23:40:53.230Z,100.00
2023-07-12T23:43:54.964Z,100.00
2023-07-12T23:46:58.216Z,100.00
2023-07-12T23:50:01.289Z,100.00
2023-07-12T23:53:04.752Z,100.00
2023-07-12T23:56:06.421Z,100.00
2023-07-12T23:59:12.987Z,100.00
